createdAt,value
2018-03-03T00:01:39.555Z,41.10
2018-03-03T00:04:07.611Z,41.20
2018-03-03T00:06:35.655Z,41.20
2018-03-03T00:09:03.716Z,41.20
2018-03-03T00:11:31.750Z,41.30
2018-03-03T00:14:00.532Z,41.20
2018-03-03T00:16:28.568Z,41.20
2018-03-03T00:18:56.622Z,41.30
2018-03-03T00:21:24.701Z,41.30
2018-03-03T00:23:52.742Z,41.20
2018-03-03T00:26:20.767Z,41.30
2018-03-03T00:28:48.801Z,41.30
2018-03-03T00:31:17.020Z,41.30
2018-03-03T00:33:46.202Z,41.40
2018-03-03T00:36:14.229Z,41.30
2018-03-03T00:38:42.261Z,41.40
2018-03-03T00:41:10.296Z,41.90
2018-03-03T00:43:38.333Z,41.30
2018-03-03T00:46:07.156Z,41.20
2018-03-03T00:48:35.184Z,41.30
2018-03-03T00:51:03.228Z,41.50
2018-03-03T00:53:31.279Z,41.60
2018-03-03T00:55:59.321Z,41.60
2018-03-03T00:58:27.390Z,41.50
2018-03-03T01:00:55.420Z,41.60
2018-03-03T01:03:23.482Z,41.60
2018-03-03T01:05:51.509Z,41.60
2018-03-03T01:08:19.565Z,41.40
2018-03-03T01:10:47.628Z,41.60
2018-03-03T01:13:15.680Z,41.60
2018-03-03T01:15:43.721Z,41.60
2018-03-03T01:18:11.768Z,41.80
2018-03-03T01:20:39.845Z,41.80
2018-03-03T01:23:07.949Z,41.80
2018-03-03T01:25:35.973Z,41.80
2018-03-03T01:28:04.040Z,41.80
2018-03-03T01:30:32.083Z,42.60
2018-03-03T01:33:00.125Z,41.70
2018-03-03T01:35:28.197Z,41.80
2018-03-03T01:37:56.230Z,41.70
2018-03-03T01:40:24.282Z,41.50
2018-03-03T01:42:52.341Z,41.90
2018-03-03T01:45:20.405Z,41.80
2018-03-03T01:47:48.494Z,41.90
2018-03-03T01:50:16.525Z,41.90
2018-03-03T01:52:44.624Z,42.00
2018-03-03T01:55:12.685Z,42.00
2018-03-03T01:57:40.731Z,42.00
2018-03-03T02:00:08.791Z,42.00
2018-03-03T02:02:36.859Z,41.90
2018-03-03T02:05:04.907Z,42.00
2018-03-03T02:07:32.929Z,42.10
2018-03-03T02:10:01.012Z,42.10
2018-03-03T02:12:29.062Z,42.00
2018-03-03T02:14:57.100Z,42.20
2018-03-03T02:17:25.181Z,42.00
2018-03-03T02:19:53.231Z,42.20
2018-03-03T02:22:21.257Z,42.10
2018-03-03T02:24:49.319Z,42.20
2018-03-03T02:27:17.351Z,42.30
2018-03-03T02:29:45.365Z,42.20
2018-03-03T02:32:13.398Z,42.20
2018-03-03T02:34:41.424Z,42.20
2018-03-03T02:37:09.523Z,42.20
2018-03-03T02:39:37.551Z,42.30
2018-03-03T02:42:05.593Z,42.30
2018-03-03T02:44:34.389Z,42.50
2018-03-03T02:47:02.409Z,42.40
2018-03-03T02:49:30.481Z,42.30
2018-03-03T02:51:58.526Z,42.40
2018-03-03T02:54:26.565Z,42.30
2018-03-03T02:56:55.361Z,42.30
2018-03-03T02:59:23.448Z,42.30
2018-03-03T03:01:51.483Z,42.40
2018-03-03T03:04:19.511Z,42.30
2018-03-03T03:06:47.547Z,42.30
2018-03-03T03:09:16.338Z,42.40
2018-03-03T03:11:44.384Z,42.40
2018-03-03T03:14:12.474Z,42.40
2018-03-03T03:16:40.494Z,42.30
2018-03-03T03:19:08.538Z,42.40
2018-03-03T03:21:36.594Z,42.40
2018-03-03T03:24:05.398Z,42.40
2018-03-03T03:26:33.468Z,42.40
2018-03-03T03:29:01.508Z,42.30
2018-03-03T03:31:29.534Z,42.30
2018-03-03T03:33:57.570Z,42.30
2018-03-03T03:36:26.353Z,42.40
2018-03-03T03:38:54.414Z,42.40
2018-03-03T03:41:22.466Z,42.40
2018-03-03T03:43:50.500Z,42.50
2018-03-03T03:46:18.519Z,42.50
2018-03-03T03:48:46.647Z,42.30
2018-03-03T03:51:14.693Z,42.30
2018-03-03T03:53:42.747Z,42.50
2018-03-03T03:56:11.555Z,42.50
2018-03-03T03:58:39.594Z,42.50
2018-03-03T04:01:07.626Z,42.60
2018-03-03T04:03:35.685Z,42.60
2018-03-03T04:06:03.729Z,41.90
2018-03-03T04:08:32.555Z,40.90
2018-03-03T04:11:00.589Z,40.90
2018-03-03T04:13:28.624Z,40.50
2018-03-03T04:15:56.698Z,40.10
2018-03-03T04:18:24.749Z,39.70
2018-03-03T04:20:52.775Z,39.40
2018-03-03T04:23:21.621Z,39.10
2018-03-03T04:25:49.657Z,39.10
2018-03-03T04:28:17.737Z,38.70
2018-03-03T04:30:45.829Z,38.60
2018-03-03T04:33:13.879Z,38.60
2018-03-03T04:35:41.929Z,38.50
2018-03-03T04:38:09.973Z,38.40
2018-03-03T04:40:38.029Z,38.20
2018-03-03T04:43:06.082Z,38.00
2018-03-03T04:45:34.166Z,37.60
2018-03-03T04:48:02.243Z,37.60
2018-03-03T04:50:30.256Z,37.50
2018-03-03T04:52:59.102Z,37.70
2018-03-03T04:55:27.117Z,37.70
2018-03-03T04:57:55.147Z,37.70
2018-03-03T05:00:23.426Z,37.40
2018-03-03T05:03:05.164Z,37.40
2018-03-03T05:08:41.496Z,37.70
2018-03-03T05:11:09.522Z,37.70
2018-03-03T05:13:47.506Z,37.50
2018-03-03T05:16:19.782Z,37.50
2018-03-03T05:18:53.160Z,37.60
2018-03-03T05:21:26.720Z,37.70
2018-03-03T05:24:00.200Z,37.70
2018-03-03T05:29:39.384Z,37.10
2018-03-03T05:32:12.836Z,37.20
2018-03-03T05:37:49.944Z,37.30
2018-03-03T05:43:25.842Z,37.10
2018-03-03T05:48:59.980Z,37.40
2018-03-03T05:51:37.934Z,37.40
2018-03-03T05:57:25.904Z,37.30
2018-03-03T05:59:59.261Z,37.40
2018-03-03T06:02:32.749Z,37.40
2018-03-03T06:05:19.527Z,37.80
2018-03-03T06:10:54.593Z,37.70
2018-03-03T06:13:23.399Z,37.70
2018-03-03T06:15:51.473Z,37.70
2018-03-03T06:18:19.502Z,37.70
2018-03-03T06:20:47.541Z,37.80
2018-03-03T06:23:15.551Z,37.60
2018-03-03T06:25:43.595Z,37.50
2018-03-03T06:28:11.661Z,37.30
2018-03-03T06:30:39.725Z,37.00
2018-03-03T06:33:07.732Z,36.70
2018-03-03T06:35:35.786Z,37.20
2018-03-03T06:38:03.829Z,37.30
2018-03-03T06:40:31.889Z,37.10
2018-03-03T06:42:59.917Z,36.80
2018-03-03T06:45:27.948Z,35.80
2018-03-03T06:47:55.992Z,35.30
2018-03-03T06:50:24.028Z,35.70
2018-03-03T06:52:52.092Z,36.00
2018-03-03T06:55:20.149Z,36.30
2018-03-03T06:57:48.192Z,36.00
2018-03-03T07:00:16.247Z,36.10
2018-03-03T07:02:44.302Z,36.10
2018-03-03T07:05:13.146Z,35.40
2018-03-03T07:07:41.235Z,35.30
2018-03-03T07:10:09.257Z,34.80
2018-03-03T07:12:37.326Z,34.70
2018-03-03T07:15:09.722Z,31.60
2018-03-03T07:17:37.794Z,34.60
2018-03-03T07:20:05.835Z,34.40
2018-03-03T07:22:33.928Z,33.80
2018-03-03T07:25:01.967Z,33.60
2018-03-03T07:27:30.037Z,34.30
2018-03-03T07:29:58.130Z,34.80
2018-03-03T07:32:26.168Z,35.10
2018-03-03T07:34:54.206Z,35.30
2018-03-03T07:37:22.424Z,35.50
2018-03-03T07:39:50.492Z,35.70
2018-03-03T07:42:18.546Z,35.80
2018-03-03T07:44:46.627Z,36.20
2018-03-03T07:47:14.709Z,35.60
2018-03-03T07:49:42.757Z,35.00
2018-03-03T07:52:10.802Z,36.10
2018-03-03T07:54:38.884Z,36.40
2018-03-03T07:57:06.996Z,36.20
2018-03-03T07:59:35.052Z,36.50
2018-03-03T08:02:03.097Z,36.80
2018-03-03T08:04:31.165Z,36.90
2018-03-03T08:06:59.211Z,37.00
2018-03-03T08:09:27.291Z,37.20
2018-03-03T08:11:55.320Z,37.10
2018-03-03T08:14:23.362Z,37.20
2018-03-03T08:16:51.413Z,37.40
2018-03-03T08:19:20.262Z,37.60
2018-03-03T08:21:48.335Z,37.50
2018-03-03T08:24:16.420Z,37.70
2018-03-03T08:26:44.474Z,37.70
2018-03-03T08:29:12.513Z,36.90
2018-03-03T08:31:40.565Z,36.60
2018-03-03T08:34:08.647Z,33.70
2018-03-03T08:36:36.700Z,32.00
2018-03-03T08:39:04.737Z,32.40
2018-03-03T08:41:32.857Z,33.20
2018-03-03T08:44:00.931Z,31.80
2018-03-03T08:46:29.040Z,31.50
2018-03-03T08:48:57.054Z,32.80
2018-03-03T08:51:25.139Z,31.60
2018-03-03T08:53:53.179Z,30.90
2018-03-03T08:56:21.222Z,42.30
2018-03-03T08:58:49.299Z,38.90
2018-03-03T09:01:17.386Z,33.30
2018-03-03T09:03:45.449Z,31.50
2018-03-03T09:06:13.569Z,32.00
2018-03-03T09:08:41.683Z,33.80
2018-03-03T09:11:09.727Z,35.00
2018-03-03T09:13:37.806Z,33.20
2018-03-03T09:16:05.904Z,35.50
2018-03-03T09:18:33.950Z,35.00
2018-03-03T09:21:02.049Z,32.90
2018-03-03T09:23:30.124Z,33.10
2018-03-03T09:25:58.210Z,32.10
2018-03-03T09:28:26.280Z,32.20
2018-03-03T09:30:54.359Z,31.00
2018-03-03T09:33:22.436Z,31.80
2018-03-03T09:35:50.498Z,31.80
2018-03-03T09:38:18.578Z,31.70
2018-03-03T09:40:47.403Z,32.70
2018-03-03T09:43:15.452Z,32.60
2018-03-03T09:45:43.569Z,32.40
2018-03-03T09:48:11.616Z,33.10
2018-03-03T09:50:39.664Z,32.50
2018-03-03T09:53:07.720Z,32.50
2018-03-03T09:55:35.740Z,32.60
2018-03-03T09:58:03.834Z,32.80
2018-03-03T10:00:31.858Z,32.90
2018-03-03T10:02:59.928Z,33.10
2018-03-03T10:05:27.970Z,33.30
2018-03-03T10:07:56.015Z,33.90
2018-03-03T10:10:24.080Z,33.40
2018-03-03T10:12:52.158Z,33.60
2018-03-03T10:15:20.263Z,34.20
2018-03-03T10:17:48.319Z,35.90
2018-03-03T10:20:16.446Z,35.80
2018-03-03T10:22:45.236Z,35.90
2018-03-03T10:25:13.261Z,35.90
2018-03-03T10:27:41.323Z,35.80
2018-03-03T10:30:09.365Z,35.90
2018-03-03T10:32:38.195Z,36.50
2018-03-03T10:35:06.287Z,36.40
2018-03-03T10:37:34.325Z,36.40
2018-03-03T10:40:02.364Z,36.30
2018-03-03T10:42:30.427Z,36.70
2018-03-03T10:44:58.510Z,36.80
2018-03-03T10:47:26.570Z,37.00
2018-03-03T10:49:54.611Z,37.50
2018-03-03T10:52:22.679Z,37.80
2018-03-03T10:54:50.754Z,37.40
2018-03-03T10:57:18.866Z,37.30
2018-03-03T10:59:46.905Z,37.40
2018-03-03T11:02:14.964Z,37.90
2018-03-03T11:04:43.023Z,37.90
2018-03-03T11:07:11.113Z,38.10
2018-03-03T11:09:39.194Z,38.30
2018-03-03T11:12:07.263Z,38.80
2018-03-03T11:14:35.323Z,39.50
2018-03-03T11:17:03.378Z,39.70
2018-03-03T11:19:31.420Z,40.20
2018-03-03T11:22:00.260Z,38.00
2018-03-03T11:24:28.352Z,38.00
2018-03-03T11:26:56.422Z,37.90
2018-03-03T11:29:24.480Z,38.30
2018-03-03T11:31:52.542Z,38.60
2018-03-03T11:34:20.640Z,38.60
2018-03-03T11:36:48.743Z,39.00
2018-03-03T11:39:17.651Z,39.50
2018-03-03T11:41:45.733Z,39.50
2018-03-03T11:44:13.800Z,39.30
2018-03-03T11:46:41.859Z,39.60
2018-03-03T11:49:09.908Z,39.60
2018-03-03T11:51:38.747Z,39.20
2018-03-03T11:54:06.822Z,39.20
2018-03-03T11:56:34.872Z,38.40
2018-03-03T11:59:02.976Z,38.90
2018-03-03T12:01:31.063Z,39.90
2018-03-03T12:03:59.162Z,40.40
2018-03-03T12:06:27.240Z,40.90
2018-03-03T12:08:56.075Z,41.30
2018-03-03T12:11:24.199Z,41.30
2018-03-03T12:13:52.261Z,41.20
2018-03-03T12:16:20.276Z,41.30
2018-03-03T12:18:48.380Z,40.10
2018-03-03T12:21:16.440Z,40.60
2018-03-03T12:23:44.512Z,40.50
2018-03-03T12:26:12.569Z,38.90
2018-03-03T12:28:40.607Z,39.50
2018-03-03T12:31:08.690Z,40.20
2018-03-03T12:33:36.779Z,40.10
2018-03-03T12:36:04.845Z,40.10
2018-03-03T12:38:32.899Z,40.20
2018-03-03T12:41:00.953Z,40.10
2018-03-03T12:43:29.043Z,40.50
2018-03-03T12:45:57.105Z,40.70
2018-03-03T12:48:25.148Z,40.60
2018-03-03T12:50:53.189Z,39.80
2018-03-03T12:53:21.260Z,40.10
2018-03-03T12:55:50.171Z,40.60
2018-03-03T12:58:18.260Z,41.10
2018-03-03T13:00:46.368Z,41.60
2018-03-03T13:03:14.409Z,41.50
2018-03-03T13:05:42.461Z,41.60
2018-03-03T13:08:10.506Z,41.10
2018-03-03T13:10:38.606Z,41.80
2018-03-03T13:13:06.665Z,41.90
2018-03-03T13:15:34.838Z,41.50
2018-03-03T13:18:02.873Z,42.30
2018-03-03T13:20:30.960Z,42.10
2018-03-03T13:22:58.993Z,42.20
2018-03-03T13:25:27.012Z,42.40
2018-03-03T13:27:55.111Z,42.30
2018-03-03T13:30:23.167Z,42.40
2018-03-03T13:32:51.189Z,42.50
2018-03-03T13:35:19.236Z,42.60
2018-03-03T13:37:47.288Z,42.60
2018-03-03T13:40:15.354Z,42.70
2018-03-03T13:42:43.401Z,42.50
2018-03-03T13:45:11.419Z,42.50
2018-03-03T13:47:39.464Z,42.70
2018-03-03T13:50:07.516Z,42.80
2018-03-03T13:52:36.349Z,43.00
2018-03-03T13:55:04.384Z,43.00
2018-03-03T13:57:32.425Z,42.80
2018-03-03T14:00:00.460Z,43.00
2018-03-03T14:02:28.494Z,43.10
2018-03-03T14:04:57.319Z,43.20
2018-03-03T14:07:25.368Z,43.20
2018-03-03T14:09:53.390Z,43.10
2018-03-03T14:12:21.441Z,43.10
2018-03-03T14:14:49.528Z,43.60
2018-03-03T14:17:17.605Z,43.40
2018-03-03T14:19:45.710Z,43.40
2018-03-03T14:22:13.772Z,43.30
2018-03-03T14:24:41.857Z,43.40
2018-03-03T14:27:09.910Z,43.50
2018-03-03T14:29:37.970Z,43.60
2018-03-03T14:32:06.059Z,43.80
2018-03-03T14:34:34.096Z,43.70
2018-03-03T14:37:02.147Z,43.70
2018-03-03T14:39:30.210Z,43.80
2018-03-03T14:41:58.275Z,43.80
2018-03-03T14:44:26.344Z,43.60
2018-03-03T14:46:54.425Z,43.70
2018-03-03T14:49:22.499Z,43.80
2018-03-03T14:51:50.531Z,43.80
2018-03-03T14:54:19.370Z,43.90
2018-03-03T14:56:47.435Z,43.90
2018-03-03T14:59:15.476Z,44.10
2018-03-03T15:01:43.559Z,44.10
2018-03-03T15:04:11.623Z,43.70
2018-03-03T15:06:39.663Z,43.90
2018-03-03T15:09:07.704Z,44.40
2018-03-03T15:11:35.744Z,44.80
2018-03-03T15:14:04.564Z,44.20
2018-03-03T15:16:32.594Z,44.20
2018-03-03T15:19:00.632Z,44.20
2018-03-03T15:21:28.688Z,45.10
2018-03-03T15:23:56.717Z,45.10
2018-03-03T15:26:25.530Z,44.80
2018-03-03T15:28:53.564Z,44.90
2018-03-03T15:31:22.130Z,44.80
2018-03-03T15:34:03.556Z,44.90
2018-03-03T15:36:32.396Z,44.70
2018-03-03T15:39:00.472Z,44.70
2018-03-03T15:41:28.495Z,44.80
2018-03-03T15:44:00.139Z,44.90
2018-03-03T15:46:28.945Z,44.50
2018-03-03T15:48:56.994Z,44.60
2018-03-03T15:51:25.049Z,45.00
2018-03-03T15:53:53.107Z,44.80
2018-03-03T15:56:21.156Z,44.90
2018-03-03T15:58:49.213Z,44.70
2018-03-03T16:01:17.326Z,45.00
2018-03-03T16:03:45.390Z,44.90
2018-03-03T16:06:13.427Z,45.00
2018-03-03T16:08:41.506Z,44.90
2018-03-03T16:11:09.552Z,44.80
2018-03-03T16:13:37.607Z,44.80
2018-03-03T16:16:05.665Z,45.00
2018-03-03T16:18:33.784Z,44.80
2018-03-03T16:21:07.699Z,44.70
2018-03-03T16:23:35.774Z,44.20
2018-03-03T16:26:03.849Z,44.10
2018-03-03T16:28:31.891Z,44.10
2018-03-03T16:30:59.955Z,44.10
2018-03-03T16:33:27.983Z,41.20
2018-03-03T16:35:56.059Z,36.90
2018-03-03T16:38:24.105Z,39.30
2018-03-03T16:40:52.143Z,40.70
2018-03-03T16:43:20.955Z,41.90
2018-03-03T16:45:49.014Z,41.90
2018-03-03T16:48:17.092Z,43.40
2018-03-03T16:50:48.580Z,43.10
2018-03-03T16:53:16.631Z,42.80
2018-03-03T16:55:44.678Z,43.20
2018-03-03T16:58:13.472Z,43.10
2018-03-03T17:00:41.544Z,43.20
2018-03-03T17:03:09.608Z,43.00
2018-03-03T17:05:37.732Z,42.80
2018-03-03T17:08:05.816Z,43.20
2018-03-03T17:10:33.881Z,43.20
2018-03-03T17:13:01.937Z,43.10
2018-03-03T17:15:29.971Z,43.20
2018-03-03T17:17:58.089Z,43.20
2018-03-03T17:20:26.159Z,43.20
2018-03-03T17:22:54.273Z,42.50
2018-03-03T17:25:22.350Z,39.80
2018-03-03T17:27:50.427Z,41.40
2018-03-03T17:30:19.282Z,41.90
2018-03-03T17:32:47.368Z,41.90
2018-03-03T17:35:15.424Z,38.40
2018-03-03T17:37:43.498Z,40.00
2018-03-03T17:40:11.576Z,41.70
2018-03-03T17:42:39.665Z,42.50
2018-03-03T17:45:07.744Z,42.80
2018-03-03T17:47:35.817Z,43.10
2018-03-03T17:50:04.632Z,43.40
2018-03-03T17:52:32.688Z,43.40
2018-03-03T17:55:00.751Z,43.60
2018-03-03T17:57:28.840Z,43.70
2018-03-03T17:59:56.936Z,43.70
2018-03-03T18:02:25.009Z,43.80
2018-03-03T18:04:53.072Z,43.90
2018-03-03T18:07:21.133Z,43.90
2018-03-03T18:09:49.215Z,43.90
2018-03-03T18:12:17.295Z,44.00
2018-03-03T18:14:45.403Z,44.00
2018-03-03T18:17:13.460Z,44.10
2018-03-03T18:19:41.515Z,43.90
2018-03-03T18:22:09.591Z,44.10
2018-03-03T18:24:37.698Z,44.00
2018-03-03T18:27:05.770Z,44.00
2018-03-03T18:29:33.840Z,44.10
2018-03-03T18:32:01.941Z,43.90
2018-03-03T18:34:29.999Z,43.70
2018-03-03T18:36:58.060Z,43.40
2018-03-03T18:39:26.202Z,43.30
2018-03-03T18:41:55.004Z,43.10
2018-03-03T18:44:23.079Z,43.10
2018-03-03T18:46:51.130Z,43.10
2018-03-03T18:49:19.196Z,43.10
2018-03-03T18:51:47.252Z,43.10
2018-03-03T18:54:15.328Z,43.10
2018-03-03T18:56:43.464Z,43.00
2018-03-03T18:59:11.510Z,43.00
2018-03-03T19:01:39.589Z,42.90
2018-03-03T19:04:07.699Z,43.10
2018-03-03T19:06:35.772Z,43.30
2018-03-03T19:09:04.108Z,43.10
2018-03-03T19:11:32.168Z,42.90
2018-03-03T19:14:00.225Z,42.80
2018-03-03T19:16:28.339Z,42.80
2018-03-03T19:18:56.392Z,42.70
2018-03-03T19:21:24.448Z,42.60
2018-03-03T19:23:52.548Z,42.60
2018-03-03T19:26:20.633Z,43.10
2018-03-03T19:28:48.743Z,43.10
2018-03-03T19:31:16.828Z,41.70
2018-03-03T19:33:44.944Z,42.30
2018-03-03T19:36:13.032Z,42.80
2018-03-03T19:38:41.092Z,42.60
2018-03-03T19:41:09.200Z,42.60
2018-03-03T19:43:37.288Z,42.60
2018-03-03T19:46:06.114Z,42.70
2018-03-03T19:48:34.180Z,42.60
2018-03-03T19:51:02.242Z,42.70
2018-03-03T19:53:31.078Z,43.00
2018-03-03T19:55:59.134Z,43.00
2018-03-03T19:58:27.226Z,43.00
2018-03-03T20:00:55.340Z,42.80
2018-03-03T20:03:23.413Z,42.90
2018-03-03T20:05:51.483Z,42.70
2018-03-03T20:08:19.549Z,42.70
2018-03-03T20:10:47.628Z,42.90
2018-03-03T20:13:15.694Z,42.70
2018-03-03T20:15:43.761Z,42.80
2018-03-03T20:18:11.844Z,42.90
2018-03-03T20:20:39.932Z,43.00
2018-03-03T20:23:07.996Z,43.40
2018-03-03T20:25:36.053Z,43.50
2018-03-03T20:28:04.108Z,43.40
2018-03-03T20:30:32.175Z,43.70
2018-03-03T20:33:00.231Z,43.60
2018-03-03T20:35:28.321Z,43.80
2018-03-03T20:37:56.379Z,43.80
2018-03-03T20:40:24.407Z,43.90
2018-03-03T20:42:52.450Z,44.20
2018-03-03T20:45:21.299Z,44.50
2018-03-03T20:47:49.383Z,44.50
2018-03-03T20:50:17.457Z,44.40
2018-03-03T20:52:45.558Z,44.40
2018-03-03T20:55:13.595Z,44.60
2018-03-03T20:57:41.650Z,45.60
2018-03-03T21:00:10.511Z,45.50
2018-03-03T21:02:38.596Z,45.40
2018-03-03T21:05:06.689Z,45.20
2018-03-03T21:07:34.759Z,45.20
2018-03-03T21:10:02.864Z,44.70
2018-03-03T21:12:32.821Z,44.80
2018-03-03T21:15:00.883Z,44.40
2018-03-03T21:17:29.704Z,44.40
2018-03-03T21:19:57.782Z,44.40
2018-03-03T21:22:25.876Z,44.30
2018-03-03T21:24:53.923Z,44.00
2018-03-03T21:27:22.014Z,44.70
2018-03-03T21:29:50.037Z,43.90
2018-03-03T21:32:18.083Z,42.70
2018-03-03T21:34:46.140Z,43.20
2018-03-03T21:37:14.237Z,43.50
2018-03-03T21:39:42.322Z,45.60
2018-03-03T21:42:10.402Z,45.90
2018-03-03T21:44:38.484Z,45.60
2018-03-03T21:47:06.532Z,47.30
2018-03-03T21:49:34.590Z,46.70
2018-03-03T21:52:02.647Z,46.60
2018-03-03T21:54:30.744Z,46.90
2018-03-03T21:56:58.849Z,46.90
2018-03-03T21:59:27.684Z,47.50
2018-03-03T22:01:55.739Z,47.40
2018-03-03T22:04:23.810Z,47.80
2018-03-03T22:06:51.884Z,47.80
2018-03-03T22:09:19.970Z,47.60
2018-03-03T22:11:48.045Z,47.50
2018-03-03T22:14:16.089Z,48.20
2018-03-03T22:16:44.212Z,47.90
2018-03-03T22:19:12.297Z,48.70
2018-03-03T22:21:40.366Z,48.10
2018-03-03T22:24:08.472Z,48.30
2018-03-03T22:26:36.548Z,46.50
2018-03-03T22:29:04.648Z,46.20
2018-03-03T22:31:32.719Z,46.30
2018-03-03T22:34:00.781Z,46.00
2018-03-03T22:36:28.859Z,46.80
2018-03-03T22:38:56.937Z,47.10
2018-03-03T22:41:25.041Z,47.30
2018-03-03T22:43:53.871Z,48.00
2018-03-03T22:46:21.931Z,48.00
2018-03-03T22:48:50.002Z,48.30
2018-03-03T22:51:18.073Z,48.40
2018-03-03T22:53:46.157Z,48.50
2018-03-03T22:56:14.230Z,48.80
2018-03-03T22:58:42.300Z,48.90
2018-03-03T23:01:10.443Z,49.20
2018-03-03T23:03:38.522Z,49.50
2018-03-03T23:06:07.365Z,50.00
2018-03-03T23:08:35.416Z,50.00
2018-03-03T23:11:03.490Z,50.40
2018-03-03T23:13:31.578Z,50.50
2018-03-03T23:15:59.679Z,50.60
2018-03-03T23:18:27.785Z,50.60
2018-03-03T23:20:55.818Z,50.70
2018-03-03T23:23:23.869Z,51.00
2018-03-03T23:25:51.923Z,50.90
2018-03-03T23:28:19.964Z,50.90
2018-03-03T23:30:48.836Z,51.10
2018-03-03T23:33:16.877Z,51.10
2018-03-03T23:35:44.934Z,51.30
2018-03-03T23:38:13.002Z,51.60
2018-03-03T23:40:41.048Z,51.60
2018-03-03T23:43:09.127Z,51.80
2018-03-03T23:45:37.165Z,51.60
2018-03-03T23:48:05.201Z,52.30
2018-03-03T23:50:33.253Z,51.90
2018-03-03T23:53:01.300Z,52.30
2018-03-03T23:55:29.392Z,52.40
2018-03-03T23:57:57.459Z,52.80
